Time,TemperatureF,DewpointF,PressureIn,WindDirection,WindDirectionDegrees,WindSpeedMPH,WindSpeedGustMPH,Humidity,HourlyPrecipIn,Conditions,Clouds,dailyrainin,SoftwareType,DateUTC
2013-02-17 00:12:00,39.6,25.0,30.30,NNE,21,7.0,9.0,57,0.00,,,0.00,weatherlink.com 1.10,2013-02-17 06:12:00,
2013-02-17 00:28:00,39.3,26.0,30.31,NNE,26,6.0,9.0,59,0.00,,,0.00,weatherlink.com 1.10,2013-02-17 06:28:00,
2013-02-17 00:43:00,39.1,25.0,30.31,North,6,9.0,10.0,57,0.00,,,0.00,weatherlink.com 1.10,2013-02-17 06:43:00,
2013-02-17 00:58:00,39.0,26.0,30.31,North,6,6.0,11.0,59,0.00,,,0.00,weatherlink.com 1.10,2013-02-17 06:58:00,
2013-02-17 01:13:00,38.6,25.0,30.30,NNE,26,7.0,9.0,59,0.00,,,0.00,weatherlink.com 1.10,2013-02-17 07:13:00,
2013-02-17 01:28:00,38.2,26.0,30.30,NNE,26,8.0,9.0,62,0.00,,,0.00,weatherlink.com 1.10,2013-02-17 07:28:00,
2013-02-17 01:43:00,38.0,26.0,30.30,NNE,21,7.0,9.0,62,0.00,,,0.00,weatherlink.com 1.10,2013-02-17 07:43:00,
2013-02-17 01:58:00,37.7,26.0,30.30,North,356,6.0,9.0,63,0.00,,,0.00,weatherlink.com 1.10,2013-02-17 07:58:00,
2013-02-17 02:13:00,37.6,27.0,30.30,NNE,20,9.0,9.0,66,0.00,,,0.00,weatherlink.com 1.10,2013-02-17 08:13:00,
2013-02-17 02:28:00,37.4,27.0,30.31,NNE,23,7.0,11.0,66,0.00,,,0.00,weatherlink.com 1.10,2013-02-17 08:28:00,
2013-02-17 02:43:00,37.0,27.0,30.31,NNE,20,7.0,10.0,66,0.00,,,0.00,weatherlink.com 1.10,2013-02-17 08:43:00,
2013-02-17 02:58:00,36.9,26.0,30.30,North,10,10.0,12.0,65,0.00,,,0.00,weatherlink.com 1.10,2013-02-17 08:58:00,
2013-02-17 03:13:00,37.0,26.0,30.30,NNE,20,10.0,11.0,65,0.00,,,0.00,weatherlink.com 1.10,2013-02-17 09:13:00,
2013-02-17 03:28:00,36.8,26.0,30.31,NNE,12,8.0,11.0,66,0.00,,,0.00,weatherlink.com 1.10,2013-02-17 09:28:00,
2013-02-17 03:43:00,36.5,26.0,30.31,NNE,13,8.0,12.0,67,0.00,,,0.00,weatherlink.com 1.10,2013-02-17 09:43:00,
2013-02-17 03:58:00,36.2,27.0,30.32,NNE,27,9.0,12.0,69,0.00,,,0.00,weatherlink.com 1.10,2013-02-17 09:58:00,
2013-02-17 04:13:00,35.8,27.0,30.32,NNE,14,10.0,11.0,71,0.00,,,0.00,weatherlink.com 1.10,2013-02-17 10:13:00,
2013-02-17 04:28:00,35.4,27.0,30.33,NNE,28,8.0,10.0,72,0.00,,,0.00,weatherlink.com 1.10,2013-02-17 10:28:00,
2013-02-17 04:43:00,35.3,27.0,30.33,North,8,7.0,9.0,71,0.00,,,0.00,weatherlink.com 1.10,2013-02-17 10:43:00,
2013-02-17 04:58:00,35.1,26.0,30.34,NNE,18,7.0,11.0,70,0.00,,,0.00,weatherlink.com 1.10,2013-02-17 10:58:00,
2013-02-17 05:13:00,35.3,27.0,30.34,NNE,28,5.0,11.0,71,0.00,,,0.00,weatherlink.com 1.10,2013-02-17 11:13:00,
2013-02-17 05:28:00,35.2,27.0,30.35,NNE,30,9.0,10.0,71,0.00,,,0.00,weatherlink.com 1.10,2013-02-17 11:28:00,
2013-02-17 05:43:00,34.8,26.0,30.35,NE,53,3.0,8.0,71,0.00,,,0.00,weatherlink.com 1.10,2013-02-17 11:43:00,
2013-02-17 05:58:00,34.1,26.0,30.35,ENE,65,1.0,5.0,73,0.00,,,0.00,weatherlink.com 1.10,2013-02-17 11:58:00,
2013-02-17 06:13:00,32.2,25.0,30.36,East,92,0.0,2.0,75,0.00,,,0.00,weatherlink.com 1.10,2013-02-17 12:13:00,
2013-02-17 06:28:00,31.3,25.0,30.36,East,100,0.0,1.0,77,0.00,,,0.00,weatherlink.com 1.10,2013-02-17 12:28:00,
2013-02-17 06:44:00,31.8,25.0,30.37,ENE,77,0.0,2.0,76,0.00,,,0.00,weatherlink.com 1.10,2013-02-17 12:44:00,
2013-02-17 06:59:00,32.7,26.0,30.38,ENE,65,0.0,2.0,76,0.00,,,0.00,weatherlink.com 1.10,2013-02-17 12:59:00,
2013-02-17 07:14:00,34.1,27.0,30.38,NE,41,0.0,2.0,74,0.00,,,0.00,weatherlink.com 1.10,2013-02-17 13:14:00,
2013-02-17 07:29:00,34.8,26.0,30.38,NE,41,1.0,3.0,71,0.00,,,0.00,weatherlink.com 1.10,2013-02-17 13:29:00,
2013-02-17 07:44:00,35.9,27.0,30.38,ESE,118,2.0,4.0,69,0.00,,,0.00,weatherlink.com 1.10,2013-02-17 13:44:00,
2013-02-17 07:59:00,37.1,26.0,30.38,NNE,16,0.0,4.0,64,0.00,,,0.00,weatherlink.com 1.10,2013-02-17 13:59:00,
2013-02-17 08:14:00,38.3,25.0,30.39,NE,43,3.0,5.0,60,0.00,,,0.00,weatherlink.com 1.10,2013-02-17 14:14:00,
2013-02-17 08:29:00,39.1,26.0,30.39,NE,39,2.0,5.0,60,0.00,,,0.00,weatherlink.com 1.10,2013-02-17 14:29:00,
2013-02-17 08:44:00,40.3,26.0,30.40,NNE,28,1.0,6.0,56,0.00,,,0.00,weatherlink.com 1.10,2013-02-17 14:44:00,
2013-02-17 08:59:00,41.1,24.0,30.40,NNE,27,3.0,5.0,50,0.00,,,0.00,weatherlink.com 1.10,2013-02-17 14:59:00,
2013-02-17 09:14:00,41.7,24.0,30.40,ENE,67,0.0,6.0,49,0.00,,,0.00,weatherlink.com 1.10,2013-02-17 15:14:00,
2013-02-17 09:29:00,42.2,23.0,30.40,NNE,32,4.0,8.0,47,0.00,,,0.00,weatherlink.com 1.10,2013-02-17 15:29:00,
2013-02-17 09:44:00,43.3,23.0,30.41,NNE,23,5.0,7.0,45,0.00,,,0.00,weatherlink.com 1.10,2013-02-17 15:44:00,
2013-02-17 09:59:00,44.1,23.0,30.41,ENE,70,1.0,4.0,43,0.00,,,0.00,weatherlink.com 1.10,2013-02-17 15:59:00,
2013-02-17 10:14:00,44.7,21.0,30.41,NNW,340,2.0,3.0,39,0.00,,,0.00,weatherlink.com 1.10,2013-02-17 16:14:00,
2013-02-17 10:29:00,45.6,24.0,30.41,NNW,333,3.0,4.0,42,0.00,,,0.00,weatherlink.com 1.10,2013-02-17 16:29:00,
2013-02-17 10:44:00,46.0,23.0,30.41,North,349,1.0,3.0,40,0.00,,,0.00,weatherlink.com 1.10,2013-02-17 16:44:00,
2013-02-17 10:59:00,46.4,26.0,30.40,West,263,2.0,7.0,45,0.00,,,0.00,weatherlink.com 1.10,2013-02-17 16:59:00,
2013-02-17 11:14:00,46.0,28.0,30.40,WNW,293,2.0,7.0,50,0.00,,,0.00,weatherlink.com 1.10,2013-02-17 17:14:00,
2013-02-17 11:29:00,46.7,28.0,30.39,NNW,328,3.0,7.0,48,0.00,,,0.00,weatherlink.com 1.10,2013-02-17 17:29:00,
2013-02-17 11:44:00,47.4,26.0,30.38,WNW,294,5.0,5.0,43,0.00,,,0.00,weatherlink.com 1.10,2013-02-17 17:44:00,
2013-02-17 11:59:00,47.8,25.0,30.37,NNW,337,0.0,6.0,41,0.00,,,0.00,weatherlink.com 1.10,2013-02-17 17:59:00,
2013-02-17 12:14:00,49.2,22.0,30.36,West,270,1.0,4.0,34,0.00,,,0.00,weatherlink.com 1.10,2013-02-17 18:14:00,
2013-02-17 12:29:00,50.7,25.0,30.34,WSW,256,1.0,4.0,37,0.00,,,0.00,weatherlink.com 1.10,2013-02-17 18:29:00,
2013-02-17 12:44:00,52.0,26.0,30.34,West,274,1.0,4.0,37,0.00,,,0.00,weatherlink.com 1.10,2013-02-17 18:44:00,
2013-02-17 12:59:00,53.7,29.0,30.32,ESE,103,2.0,7.0,39,0.00,,,0.00,weatherlink.com 1.10,2013-02-17 18:59:00,
2013-02-17 13:14:00,52.6,27.0,30.32,SSE,165,4.0,12.0,38,0.00,,,0.00,weatherlink.com 1.10,2013-02-17 19:14:00,
2013-02-17 13:29:00,52.4,29.0,30.32,West,260,2.0,8.0,40,0.00,,,0.00,weatherlink.com 1.10,2013-02-17 19:29:00,
2013-02-17 13:44:00,52.7,29.0,30.32,SW,217,3.0,9.0,40,0.00,,,0.00,weatherlink.com 1.10,2013-02-17 19:44:00,
2013-02-17 13:59:00,52.0,28.0,30.32,WSW,257,3.0,11.0,40,0.00,,,0.00,weatherlink.com 1.10,2013-02-17 19:59:00,
2013-02-17 14:14:00,53.9,27.0,30.31,WSW,256,1.0,4.0,36,0.00,,,0.00,weatherlink.com 1.10,2013-02-17 20:14:00,
2013-02-17 14:29:00,53.5,28.0,30.31,East,96,2.0,7.0,38,0.00,,,0.00,weatherlink.com 1.10,2013-02-17 20:29:00,
2013-02-17 14:44:00,53.7,29.0,30.31,WSW,243,1.0,6.0,39,0.00,,,0.00,weatherlink.com 1.10,2013-02-17 20:44:00,
2013-02-17 15:00:00,53.0,28.0,30.30,South,186,6.0,10.0,39,0.00,,,0.00,weatherlink.com 1.10,2013-02-17 21:00:00,
2013-02-17 15:15:00,53.2,30.0,30.30,SSW,205,6.0,9.0,41,0.00,,,0.00,weatherlink.com 1.10,2013-02-17 21:15:00,
2013-02-17 15:30:00,53.8,30.0,30.30,West,276,0.0,11.0,40,0.00,,,0.00,weatherlink.com 1.10,2013-02-17 21:30:00,
2013-02-17 15:45:00,53.3,31.0,30.30,SW,215,2.0,6.0,42,0.00,,,0.00,weatherlink.com 1.10,2013-02-17 21:45:00,
2013-02-17 16:00:00,53.7,32.0,30.30,WSW,248,4.0,5.0,44,0.00,,,0.00,weatherlink.com 1.10,2013-02-17 22:00:00,
2013-02-17 16:15:00,53.9,32.0,30.30,NE,34,0.0,5.0,44,0.00,,,0.00,weatherlink.com 1.10,2013-02-17 22:15:00,
2013-02-17 16:30:00,53.7,32.0,30.30,SSE,159,1.0,6.0,44,0.00,,,0.00,weatherlink.com 1.10,2013-02-17 22:30:00,
2013-02-17 16:45:00,54.4,33.0,30.30,SSW,204,3.0,6.0,45,0.00,,,0.00,weatherlink.com 1.10,2013-02-17 22:45:00,
2013-02-17 17:00:00,53.5,34.0,30.30,SW,223,5.0,6.0,47,0.00,,,0.00,weatherlink.com 1.10,2013-02-17 23:00:00,
2013-02-17 17:15:00,52.5,33.0,30.30,SSW,197,1.0,4.0,48,0.00,,,0.00,weatherlink.com 1.10,2013-02-17 23:15:00,
2013-02-17 17:30:00,50.3,33.0,30.30,SSE,167,0.0,2.0,52,0.00,,,0.00,weatherlink.com 1.10,2013-02-17 23:30:00,
2013-02-17 17:45:00,48.1,33.0,30.30,South,169,0.0,0.0,56,0.00,,,0.00,weatherlink.com 1.10,2013-02-17 23:45:00,
2013-02-17 18:00:00,46.1,33.0,30.30,South,169,0.0,1.0,61,0.00,,,0.00,weatherlink.com 1.10,2013-02-18 00:00:00,
2013-02-17 18:15:00,44.8,34.0,30.30,South,169,0.0,0.0,65,0.00,,,0.00,weatherlink.com 1.10,2013-02-18 00:15:00,
2013-02-17 18:30:00,44.8,34.0,30.31,South,170,0.0,1.0,67,0.00,,,0.00,weatherlink.com 1.10,2013-02-18 00:30:00,
2013-02-17 18:45:00,44.1,34.0,30.31,South,170,0.0,0.0,67,0.00,,,0.00,weatherlink.com 1.10,2013-02-18 00:45:00,
2013-02-17 19:00:00,44.5,33.0,30.31,South,170,0.0,0.0,65,0.00,,,0.00,weatherlink.com 1.10,2013-02-18 01:00:00,
2013-02-17 19:15:00,43.3,35.0,30.31,SE,142,1.0,2.0,72,0.00,,,0.00,weatherlink.com 1.10,2013-02-18 01:15:00,
2013-02-17 19:30:00,42.0,34.0,30.31,SE,146,0.0,1.0,74,0.00,,,0.00,weatherlink.com 1.10,2013-02-18 01:30:00,
2013-02-17 19:45:00,42.2,34.0,30.32,SE,146,0.0,0.0,72,0.00,,,0.00,weatherlink.com 1.10,2013-02-18 01:45:00,
2013-02-17 20:00:00,41.1,34.0,30.32,SSE,147,0.0,0.0,75,0.00,,,0.00,weatherlink.com 1.10,2013-02-18 02:00:00,
2013-02-17 20:15:00,41.6,35.0,30.32,SSE,147,1.0,2.0,76,0.00,,,0.00,weatherlink.com 1.10,2013-02-18 02:15:00,
2013-02-17 20:30:00,40.9,37.0,30.32,SSE,149,1.0,1.0,85,0.00,,,0.00,weatherlink.com 1.10,2013-02-18 02:30:00,
2013-02-17 20:45:00,40.2,37.0,30.33,SSE,150,1.0,2.0,88,0.00,,,0.00,weatherlink.com 1.10,2013-02-18 02:45:00,
2013-02-17 21:00:00,39.6,37.0,30.33,SSE,150,0.0,1.0,90,0.00,,,0.00,weatherlink.com 1.10,2013-02-18 03:00:00,
2013-02-17 21:15:00,39.0,37.0,30.34,SSE,150,0.0,1.0,91,0.00,,,0.00,weatherlink.com 1.10,2013-02-18 03:15:00,
2013-02-17 21:30:00,38.1,36.0,30.33,SSE,152,0.0,0.0,92,0.00,,,0.00,weatherlink.com 1.10,2013-02-18 03:30:00,
2013-02-17 21:45:00,37.7,36.0,30.33,SSE,150,0.0,1.0,93,0.00,,,0.00,weatherlink.com 1.10,2013-02-18 03:45:00,
2013-02-17 22:00:00,37.4,36.0,30.33,SSE,150,0.0,0.0,93,0.00,,,0.00,weatherlink.com 1.10,2013-02-18 04:00:00,
2013-02-17 22:15:00,37.0,35.0,30.33,SSE,149,0.0,1.0,93,0.00,,,0.00,weatherlink.com 1.10,2013-02-18 04:15:00,
2013-02-17 22:30:00,37.2,36.0,30.33,SSE,162,1.0,1.0,95,0.00,,,0.00,weatherlink.com 1.10,2013-02-18 04:30:00,
2013-02-17 22:45:00,37.2,36.0,30.33,SSE,158,0.0,2.0,95,0.00,,,0.00,weatherlink.com 1.10,2013-02-18 04:45:00,
2013-02-17 23:00:00,36.8,36.0,30.34,SSE,157,0.0,0.0,95,0.00,,,0.00,weatherlink.com 1.10,2013-02-18 05:00:00,
2013-02-17 23:15:00,36.6,35.0,30.33,SSE,162,0.0,1.0,95,0.00,,,0.00,weatherlink.com 1.10,2013-02-18 05:15:00,
2013-02-17 23:30:00,36.4,35.0,30.33,SSE,152,0.0,0.0,95,0.00,,,0.00,weatherlink.com 1.10,2013-02-18 05:30:00,
2013-02-17 23:45:00,36.4,35.0,30.33,SSE,163,1.0,2.0,96,0.00,,,0.00,weatherlink.com 1.10,2013-02-18 05:45:00,